sensor_id;sensor_type;location;lat;lon;timestamp;temperature;humidity
78793;SHT31;68134;51.984;5.652;2023-02-23T17:30:26;10.7;71.8
78793;SHT31;68134;51.984;5.652;2023-02-23T17:32:57;10.7;71.1
78793;SHT31;68134;51.984;5.652;2023-02-23T17:35:27;10.7;71.1
78793;SHT31;68134;51.984;5.652;2023-02-23T17:37:59;10.7;71.0
78793;SHT31;68134;51.984;5.652;2023-02-23T17:40:29;10.7;70.9
78793;SHT31;68134;51.984;5.652;2023-02-23T17:43:04;10.6;70.3
78793;SHT31;68134;51.984;5.652;2023-02-23T17:45:36;10.6;70.5
78793;SHT31;68134;51.984;5.652;2023-02-23T17:48:05;10.6;70.6
78793;SHT31;68134;51.984;5.652;2023-02-23T17:50:35;10.6;70.7
78793;SHT31;68134;51.984;5.652;2023-02-23T17:53:05;10.5;71.0
78793;SHT31;68134;51.984;5.652;2023-02-23T17:55:34;10.5;70.5
78793;SHT31;68134;51.984;5.652;2023-02-23T17:58:04;10.5;70.7
78793;SHT31;68134;51.984;5.652;2023-02-23T18:00:33;10.5;70.6
78793;SHT31;68134;51.984;5.652;2023-02-23T18:03:07;10.4;70.2
78793;SHT31;68134;51.984;5.652;2023-02-23T18:05:36;10.4;70.5
78793;SHT31;68134;51.984;5.652;2023-02-23T18:08:06;10.4;70.7
78793;SHT31;68134;51.984;5.652;2023-02-23T18:10:36;10.3;71.0
78793;SHT31;68134;51.984;5.652;2023-02-23T18:13:05;10.3;71.0
78793;SHT31;68134;51.984;5.652;2023-02-23T18:15:35;10.3;70.4
78793;SHT31;68134;51.984;5.652;2023-02-23T18:18:04;10.3;70.3
78793;SHT31;68134;51.984;5.652;2023-02-23T18:20:36;10.3;70.9
78793;SHT31;68134;51.984;5.652;2023-02-23T18:23:07;10.2;70.7
78793;SHT31;68134;51.984;5.652;2023-02-23T18:25:37;10.2;70.4
78793;SHT31;68134;51.984;5.652;2023-02-23T18:28:07;10.2;68.9
78793;SHT31;68134;51.984;5.652;2023-02-23T18:30:39;10.1;68.5
78793;SHT31;68134;51.984;5.652;2023-02-23T18:33:12;10.1;68.3
78793;SHT31;68134;51.984;5.652;2023-02-23T18:35:42;10.1;67.8
78793;SHT31;68134;51.984;5.652;2023-02-23T18:38:14;10.0;68.0
78793;SHT31;68134;51.984;5.652;2023-02-23T18:40:44;10.0;68.0
78793;SHT31;68134;51.984;5.652;2023-02-23T18:43:13;9.9;67.4
78793;SHT31;68134;51.984;5.652;2023-02-23T18:45:43;9.9;66.8
78793;SHT31;68134;51.984;5.652;2023-02-23T18:48:12;9.8;67.1
78793;SHT31;68134;51.984;5.652;2023-02-23T18:50:42;9.8;67.2
78793;SHT31;68134;51.984;5.652;2023-02-23T18:53:12;9.7;67.8
78793;SHT31;68134;51.984;5.652;2023-02-23T18:55:41;9.7;67.5
78793;SHT31;68134;51.984;5.652;2023-02-23T18:58:12;9.7;67.9
78793;SHT31;68134;51.984;5.652;2023-02-23T19:00:41;9.6;68.1
78793;SHT31;68134;51.984;5.652;2023-02-23T19:03:12;9.6;68.1
78793;SHT31;68134;51.984;5.652;2023-02-23T19:05:44;9.6;68.0
78793;SHT31;68134;51.984;5.652;2023-02-23T19:08:20;9.6;68.2
78793;SHT31;68134;51.984;5.652;2023-02-23T19:10:50;9.6;67.8
78793;SHT31;68134;51.984;5.652;2023-02-23T19:13:20;9.5;67.8
78793;SHT31;68134;51.984;5.652;2023-02-23T19:15:50;9.5;67.7
78793;SHT31;68134;51.984;5.652;2023-02-23T19:18:20;9.5;67.3
78793;SHT31;68134;51.984;5.652;2023-02-23T19:20:52;9.4;67.9
78793;SHT31;68134;51.984;5.652;2023-02-23T19:23:21;9.3;67.6
78793;SHT31;68134;51.984;5.652;2023-02-23T19:25:51;9.3;67.8
78793;SHT31;68134;51.984;5.652;2023-02-23T19:28:21;9.2;68.0
78793;SHT31;68134;51.984;5.652;2023-02-23T19:31:04;9.1;68.4
78793;SHT31;68134;51.984;5.652;2023-02-23T19:33:35;9.1;68.1
78793;SHT31;68134;51.984;5.652;2023-02-23T19:36:07;9.0;68.5
78793;SHT31;68134;51.984;5.652;2023-02-23T19:38:38;8.9;68.5
78793;SHT31;68134;51.984;5.652;2023-02-23T19:41:11;8.9;68.7
78793;SHT31;68134;51.984;5.652;2023-02-23T19:43:41;8.8;68.7
78793;SHT31;68134;51.984;5.652;2023-02-23T19:46:13;8.8;68.5
78793;SHT31;68134;51.984;5.652;2023-02-23T19:48:47;8.7;68.3
78793;SHT31;68134;51.984;5.652;2023-02-23T19:51:18;8.7;68.3
78793;SHT31;68134;51.984;5.652;2023-02-23T19:53:48;8.6;68.0
78793;SHT31;68134;51.984;5.652;2023-02-23T19:56:18;8.6;67.8
78793;SHT31;68134;51.984;5.652;2023-02-23T19:58:50;8.5;68.0
78793;SHT31;68134;51.984;5.652;2023-02-23T20:01:22;8.4;67.9
78793;SHT31;68134;51.984;5.652;2023-02-23T20:03:55;8.4;68.1
78793;SHT31;68134;51.984;5.652;2023-02-23T20:06:30;8.3;68.1
78793;SHT31;68134;51.984;5.652;2023-02-23T20:09:02;8.3;68.1
78793;SHT31;68134;51.984;5.652;2023-02-23T20:11:33;8.2;68.0
78793;SHT31;68134;51.984;5.652;2023-02-23T20:14:03;8.2;67.9
78793;SHT31;68134;51.984;5.652;2023-02-23T20:16:35;8.1;67.9
78793;SHT31;68134;51.984;5.652;2023-02-23T20:19:05;8.1;68.2
78793;SHT31;68134;51.984;5.652;2023-02-23T20:21:37;8.0;68.2
78793;SHT31;68134;51.984;5.652;2023-02-23T20:24:09;8.0;68.7
78793;SHT31;68134;51.984;5.652;2023-02-23T20:26:41;7.9;68.6
78793;SHT31;68134;51.984;5.652;2023-02-23T20:29:14;7.9;68.8
78793;SHT31;68134;51.984;5.652;2023-02-23T20:31:47;7.8;68.9
78793;SHT31;68134;51.984;5.652;2023-02-23T20:34:19;7.8;68.7
78793;SHT31;68134;51.984;5.652;2023-02-23T20:36:50;7.7;68.6
78793;SHT31;68134;51.984;5.652;2023-02-23T20:39:24;7.7;68.3
78793;SHT31;68134;51.984;5.652;2023-02-23T20:41:55;7.7;68.2
78793;SHT31;68134;51.984;5.652;2023-02-23T20:44:27;7.6;68.4
78793;SHT31;68134;51.984;5.652;2023-02-23T20:46:59;7.6;68.4
78793;SHT31;68134;51.984;5.652;2023-02-23T20:49:29;7.5;68.4
78793;SHT31;68134;51.984;5.652;2023-02-23T20:51:58;7.5;68.2
78793;SHT31;68134;51.984;5.652;2023-02-23T20:54:29;7.4;68.3
78793;SHT31;68134;51.984;5.652;2023-02-23T20:56:59;7.4;68.2
78793;SHT31;68134;51.984;5.652;2023-02-23T20:59:34;7.4;68.3
78793;SHT31;68134;51.984;5.652;2023-02-23T21:02:06;7.3;68.3
78793;SHT31;68134;51.984;5.652;2023-02-23T21:04:40;7.3;68.9
78793;SHT31;68134;51.984;5.652;2023-02-23T21:07:11;7.2;68.2
78793;SHT31;68134;51.984;5.652;2023-02-23T21:09:41;7.2;68.7
78793;SHT31;68134;51.984;5.652;2023-02-23T21:12:11;7.2;68.6
78793;SHT31;68134;51.984;5.652;2023-02-23T21:14:42;7.1;68.6
78793;SHT31;68134;51.984;5.652;2023-02-23T21:17:12;7.1;68.4
78793;SHT31;68134;51.984;5.652;2023-02-23T21:19:42;7.0;68.1
78793;SHT31;68134;51.984;5.652;2023-02-23T21:22:11;7.0;68.7
78793;SHT31;68134;51.984;5.652;2023-02-23T21:24:44;7.0;68.2
78793;SHT31;68134;51.984;5.652;2023-02-23T21:27:16;6.9;68.1
78793;SHT31;68134;51.984;5.652;2023-02-23T21:29:46;6.9;69.1
78793;SHT31;68134;51.984;5.652;2023-02-23T21:32:15;6.8;69.3
78793;SHT31;68134;51.984;5.652;2023-02-23T21:34:46;6.8;68.9
78793;SHT31;68134;51.984;5.652;2023-02-23T21:37:17;6.8;68.3
78793;SHT31;68134;51.984;5.652;2023-02-23T21:39:48;6.7;68.1
78793;SHT31;68134;51.984;5.652;2023-02-23T21:42:18;6.7;68.6
78793;SHT31;68134;51.984;5.652;2023-02-23T21:44:50;6.7;68.3
78793;SHT31;68134;51.984;5.652;2023-02-23T21:47:20;6.6;68.3
78793;SHT31;68134;51.984;5.652;2023-02-23T21:49:49;6.6;68.7
78793;SHT31;68134;51.984;5.652;2023-02-23T21:52:20;6.6;68.2
78793;SHT31;68134;51.984;5.652;2023-02-23T21:54:50;6.5;68.3
78793;SHT31;68134;51.984;5.652;2023-02-23T21:57:20;6.5;67.9
78793;SHT31;68134;51.984;5.652;2023-02-23T21:59:52;6.4;68.4
78793;SHT31;68134;51.984;5.652;2023-02-23T22:02:22;6.4;67.9
78793;SHT31;68134;51.984;5.652;2023-02-23T22:04:56;6.4;67.8
78793;SHT31;68134;51.984;5.652;2023-02-23T22:07:26;6.3;68.2
78793;SHT31;68134;51.984;5.652;2023-02-23T22:09:56;6.3;68.2
78793;SHT31;68134;51.984;5.652;2023-02-23T22:12:26;6.2;68.3
78793;SHT31;68134;51.984;5.652;2023-02-23T22:14:56;6.2;68.0
78793;SHT31;68134;51.984;5.652;2023-02-23T22:17:25;6.2;67.7
78793;SHT31;68134;51.984;5.652;2023-02-23T22:19:57;6.1;68.6
78793;SHT31;68134;51.984;5.652;2023-02-23T22:22:27;6.1;68.6
78793;SHT31;68134;51.984;5.652;2023-02-23T22:25:01;6.1;68.8
78793;SHT31;68134;51.984;5.652;2023-02-23T22:27:32;6.0;68.5
78793;SHT31;68134;51.984;5.652;2023-02-23T22:30:02;6.0;68.2
78793;SHT31;68134;51.984;5.652;2023-02-23T22:32:33;5.9;67.8
78793;SHT31;68134;51.984;5.652;2023-02-23T22:35:03;5.9;68.2
78793;SHT31;68134;51.984;5.652;2023-02-23T22:37:33;5.9;68.6
78793;SHT31;68134;51.984;5.652;2023-02-23T22:40:06;5.8;68.1
78793;SHT31;68134;51.984;5.652;2023-02-23T22:42:43;5.8;68.2
78793;SHT31;68134;51.984;5.652;2023-02-23T22:45:14;5.8;68.0
78793;SHT31;68134;51.984;5.652;2023-02-23T22:47:44;5.7;68.2
78793;SHT31;68134;51.984;5.652;2023-02-23T22:50:14;5.7;68.2
78793;SHT31;68134;51.984;5.652;2023-02-23T22:52:45;5.6;68.1
78793;SHT31;68134;51.984;5.652;2023-02-23T22:55:15;5.6;68.3
78793;SHT31;68134;51.984;5.652;2023-02-23T22:57:45;5.6;68.1
78793;SHT31;68134;51.984;5.652;2023-02-23T23:00:19;5.5;69.3
78793;SHT31;68134;51.984;5.652;2023-02-23T23:02:51;5.5;69.3
78793;SHT31;68134;51.984;5.652;2023-02-23T23:05:21;5.4;69.2
78793;SHT31;68134;51.984;5.652;2023-02-23T23:07:52;5.4;69.2
78793;SHT31;68134;51.984;5.652;2023-02-23T23:10:23;5.4;70.0
78793;SHT31;68134;51.984;5.652;2023-02-23T23:12:53;5.3;69.2
78793;SHT31;68134;51.984;5.652;2023-02-23T23:15:23;5.3;69.9
78793;SHT31;68134;51.984;5.652;2023-02-23T23:17:54;5.3;70.2
78793;SHT31;68134;51.984;5.652;2023-02-23T23:20:23;5.2;70.4
78793;SHT31;68134;51.984;5.652;2023-02-23T23:22:53;5.2;69.8
78793;SHT31;68134;51.984;5.652;2023-02-23T23:25:26;5.2;70.4
78793;SHT31;68134;51.984;5.652;2023-02-23T23:27:58;5.1;70.2
78793;SHT31;68134;51.984;5.652;2023-02-23T23:30:27;5.1;70.2
78793;SHT31;68134;51.984;5.652;2023-02-23T23:32:57;5.1;69.4
78793;SHT31;68134;51.984;5.652;2023-02-23T23:35:29;5.1;70.4
78793;SHT31;68134;51.984;5.652;2023-02-23T23:38:01;5.0;70.0
78793;SHT31;68134;51.984;5.652;2023-02-23T23:40:32;5.0;69.7
78793;SHT31;68134;51.984;5.652;2023-02-23T23:43:04;5.0;69.8
78793;SHT31;68134;51.984;5.652;2023-02-23T23:45:39;4.9;69.6
78793;SHT31;68134;51.984;5.652;2023-02-23T23:48:10;4.9;70.1
78793;SHT31;68134;51.984;5.652;2023-02-23T23:50:40;4.9;69.7
78793;SHT31;68134;51.984;5.652;2023-02-23T23:53:10;4.9;69.7
78793;SHT31;68134;51.984;5.652;2023-02-23T23:55:43;4.8;70.5
78793;SHT31;68134;51.984;5.652;2023-02-23T23:58:12;4.8;70.0
